createdAt,value
2023-05-03T00:01:19.887Z,31.73
2023-05-03T00:03:51.301Z,27.45
2023-05-03T00:06:22.336Z,28.40
2023-05-03T00:08:52.733Z,31.30
2023-05-03T00:11:23.606Z,27.67
2023-05-03T00:13:53.944Z,26.40
2023-05-03T00:16:24.186Z,26.92
2023-05-03T00:18:54.956Z,22.60
2023-05-03T00:21:25.287Z,25.23
2023-05-03T00:23:55.612Z,28.98
2023-05-03T00:26:26.148Z,26.27
2023-05-03T00:28:56.546Z,27.90
2023-05-03T00:31:26.881Z,25.30
2023-05-03T00:33:57.231Z,33.00
2023-05-03T00:36:27.577Z,25.83
2023-05-03T00:38:57.840Z,29.20
2023-05-03T00:41:28.622Z,29.08
2023-05-03T00:43:58.894Z,28.45
2023-05-03T00:46:29.302Z,26.38
2023-05-03T00:49:00.021Z,22.70
2023-05-03T00:51:30.723Z,24.88
2023-05-03T00:54:00.945Z,29.87
2023-05-03T00:56:37.983Z,29.25
2023-05-03T00:59:18.763Z,27.50
2023-05-03T01:01:54.956Z,27.93
2023-05-03T01:04:26.261Z,30.77
2023-05-03T01:07:02.113Z,27.35
2023-05-03T01:10:07.231Z,24.33
2023-05-03T01:13:06.391Z,21.88
2023-05-03T01:15:59.469Z,21.85
2023-05-03T01:18:37.124Z,25.52
2023-05-03T01:21:10.248Z,22.58
2023-05-03T01:23:55.300Z,24.45
2023-05-03T01:26:27.734Z,25.75
2023-05-03T01:28:59.278Z,20.90
2023-05-03T01:31:31.411Z,23.58
2023-05-03T01:34:20.519Z,25.03
2023-05-03T01:36:53.456Z,21.35
2023-05-03T01:39:31.550Z,21.48
2023-05-03T01:42:04.527Z,25.40
2023-05-03T01:44:36.403Z,22.15
2023-05-03T01:47:06.689Z,28.77
2023-05-03T01:49:37.739Z,24.00
2023-05-03T01:52:08.523Z,24.67
2023-05-03T01:54:38.964Z,23.90
2023-05-03T01:57:09.311Z,22.15
2023-05-03T01:59:40.159Z,24.87
2023-05-03T02:02:10.520Z,25.05
2023-05-03T02:04:41.173Z,26.27
2023-05-03T02:07:11.664Z,23.53
2023-05-03T02:09:42.033Z,22.60
2023-05-03T02:12:13.912Z,21.05
2023-05-03T02:14:44.375Z,20.08
2023-05-03T02:17:15.330Z,23.63
2023-05-03T02:19:46.270Z,20.20
2023-05-03T02:22:16.535Z,23.63
2023-05-03T02:24:46.847Z,26.88
2023-05-03T02:27:18.861Z,24.23
2023-05-03T02:29:49.392Z,22.83
2023-05-03T02:32:19.676Z,20.37
2023-05-03T02:34:51.480Z,23.42
2023-05-03T02:37:24.896Z,19.02
2023-05-03T02:42:26.442Z,23.88
2023-05-03T02:44:57.430Z,21.50
2023-05-03T02:49:59.366Z,19.27
2023-05-03T02:52:30.036Z,21.10
2023-05-03T02:55:00.550Z,18.40
2023-05-03T02:57:30.930Z,22.93
2023-05-03T03:00:03.232Z,21.08
2023-05-03T03:02:33.846Z,24.10
2023-05-03T03:05:04.287Z,20.50
2023-05-03T03:07:35.226Z,18.03
2023-05-03T03:10:06.962Z,18.48
2023-05-03T03:12:39.552Z,19.50
2023-05-03T03:15:14.091Z,18.10
2023-05-03T03:17:45.162Z,20.83
2023-05-03T03:20:16.347Z,20.10
2023-05-03T03:22:49.984Z,18.52
2023-05-03T03:25:20.703Z,18.37
2023-05-03T03:27:51.317Z,20.27
2023-05-03T03:30:21.865Z,17.23
2023-05-03T03:33:02.304Z,17.87
2023-05-03T03:35:40.647Z,22.50
2023-05-03T03:38:11.867Z,23.73
2023-05-03T03:40:50.199Z,22.42
2023-05-03T03:43:20.979Z,23.47
2023-05-03T03:45:52.825Z,22.30
2023-05-03T03:48:23.358Z,21.10
2023-05-03T03:50:54.384Z,19.43
2023-05-03T03:53:29.419Z,19.27
2023-05-03T03:55:59.673Z,22.87
2023-05-03T03:58:30.159Z,22.50
2023-05-03T04:01:00.921Z,20.02
2023-05-03T04:03:32.826Z,19.30
2023-05-03T04:06:03.319Z,20.10
2023-05-03T04:08:33.951Z,21.50
2023-05-03T04:11:05.377Z,20.15
2023-05-03T04:13:38.966Z,19.73
2023-05-03T04:16:10.567Z,19.77
2023-05-03T04:18:41.116Z,19.15
2023-05-03T04:21:12.204Z,18.85
2023-05-03T04:23:43.901Z,19.60
2023-05-03T04:26:30.018Z,19.85
2023-05-03T04:29:09.586Z,20.45
2023-05-03T04:31:42.072Z,19.95
2023-05-03T04:34:13.070Z,21.40
2023-05-03T04:36:44.761Z,20.17
2023-05-03T04:39:16.079Z,20.08
2023-05-03T04:41:48.620Z,21.48
2023-05-03T04:44:19.257Z,20.95
2023-05-03T04:46:52.381Z,21.27
2023-05-03T04:49:22.873Z,20.87
2023-05-03T04:51:54.555Z,23.27
2023-05-03T04:54:26.826Z,23.98
2023-05-03T04:56:58.483Z,21.08
2023-05-03T04:59:29.000Z,21.45
2023-05-03T05:02:00.064Z,24.70
2023-05-03T05:04:30.623Z,21.55
2023-05-03T05:07:01.904Z,22.33
2023-05-03T05:09:34.368Z,22.58
2023-05-03T05:12:06.583Z,22.33
2023-05-03T05:14:41.952Z,22.02
2023-05-03T05:17:12.717Z,21.17
2023-05-03T05:19:45.055Z,22.63
2023-05-03T05:22:15.363Z,23.42
2023-05-03T05:24:51.290Z,25.02
2023-05-03T05:27:23.683Z,23.20
2023-05-03T05:29:56.289Z,22.98
2023-05-03T05:32:26.754Z,24.30
2023-05-03T05:37:31.795Z,24.05
2023-05-03T05:40:06.167Z,22.63
2023-05-03T05:42:42.838Z,26.73
2023-05-03T05:45:13.892Z,22.47
2023-05-03T05:47:46.239Z,23.98
2023-05-03T05:50:18.808Z,22.73
2023-05-03T05:52:58.578Z,24.77
2023-05-03T05:55:32.596Z,24.67
2023-05-03T05:58:04.060Z,25.88
2023-05-03T06:00:43.459Z,25.73
2023-05-03T06:03:15.165Z,26.67
2023-05-03T06:05:46.142Z,25.63
2023-05-03T06:08:16.700Z,27.70
2023-05-03T06:10:46.990Z,27.58
2023-05-03T06:13:17.601Z,25.13
2023-05-03T06:15:49.528Z,25.67
2023-05-03T06:18:20.786Z,27.95
2023-05-03T06:20:54.191Z,27.47
2023-05-03T06:23:25.256Z,26.35
2023-05-03T06:28:27.392Z,28.73
2023-05-03T06:30:59.127Z,26.75
2023-05-03T06:33:31.641Z,26.42
2023-05-03T06:38:32.799Z,25.67
2023-05-03T06:41:03.430Z,24.90
2023-05-03T06:43:33.966Z,25.67
2023-05-03T06:46:06.581Z,25.67
2023-05-03T06:48:36.864Z,25.30
2023-05-03T06:51:08.072Z,25.75
2023-05-03T06:53:40.374Z,26.35
2023-05-03T06:56:10.950Z,23.48
2023-05-03T06:58:41.344Z,24.93
2023-05-03T07:01:11.841Z,24.90
2023-05-03T07:03:42.350Z,22.48
2023-05-03T07:06:13.602Z,22.92
2023-05-03T07:08:43.940Z,22.07
2023-05-03T07:11:14.319Z,21.63
2023-05-03T07:13:44.421Z,23.00
2023-05-03T07:16:14.664Z,22.92
2023-05-03T07:18:44.854Z,20.60
2023-05-03T07:21:15.924Z,23.05
2023-05-03T07:26:17.454Z,20.38
2023-05-03T07:28:48.347Z,21.20
2023-05-03T07:31:19.795Z,20.70
2023-05-03T07:33:50.617Z,22.52
2023-05-03T07:36:21.134Z,19.70
2023-05-03T07:38:51.649Z,20.57
2023-05-03T07:41:21.964Z,18.83
2023-05-03T07:43:52.586Z,17.93
2023-05-03T07:46:23.156Z,17.93
2023-05-03T07:48:53.686Z,18.42
2023-05-03T07:51:23.978Z,18.80
2023-05-03T07:53:54.634Z,20.47
2023-05-03T07:56:26.285Z,18.50
2023-05-03T07:59:07.524Z,18.58
2023-05-03T08:01:39.278Z,18.70
2023-05-03T08:04:10.424Z,18.53
2023-05-03T08:09:11.846Z,18.40
2023-05-03T08:11:43.934Z,18.83
2023-05-03T08:14:16.533Z,19.23
2023-05-03T08:16:46.907Z,16.25
2023-05-03T08:19:17.463Z,19.90
2023-05-03T08:21:49.379Z,18.35
2023-05-03T08:24:19.666Z,17.73
2023-05-03T08:26:50.867Z,15.23
2023-05-03T08:29:21.110Z,16.70
2023-05-03T08:31:51.246Z,16.30
2023-05-03T08:34:21.735Z,14.90
2023-05-03T08:36:52.050Z,17.57
2023-05-03T08:39:22.427Z,17.90
2023-05-03T08:41:53.434Z,15.50
2023-05-03T08:44:25.786Z,17.40
2023-05-03T08:46:56.148Z,15.32
2023-05-03T08:49:27.071Z,16.97
2023-05-03T08:52:00.062Z,20.30
2023-05-03T08:54:30.787Z,15.68
2023-05-03T08:59:32.043Z,15.93
2023-05-03T09:02:02.723Z,18.65
2023-05-03T09:04:39.237Z,15.23
2023-05-03T09:07:14.439Z,15.88
2023-05-03T09:09:47.261Z,14.63
2023-05-03T09:12:39.144Z,14.68
2023-05-03T09:15:10.001Z,16.08
2023-05-03T09:17:40.275Z,15.25
2023-05-03T09:20:11.392Z,15.80
2023-05-03T09:22:57.901Z,15.98
2023-05-03T09:25:42.502Z,19.00
2023-05-03T09:28:13.048Z,17.60
2023-05-03T09:30:43.479Z,15.70
2023-05-03T09:33:14.156Z,14.10
2023-05-03T09:36:08.079Z,14.88
2023-05-03T09:38:42.001Z,14.15
2023-05-03T09:41:13.264Z,17.20
2023-05-03T09:43:54.864Z,15.48
2023-05-03T09:46:31.725Z,14.07
2023-05-03T09:49:12.057Z,17.05
2023-05-03T09:51:44.103Z,15.85
2023-05-03T09:54:15.199Z,14.90
2023-05-03T09:59:17.498Z,13.85
2023-05-03T10:01:48.269Z,13.93
2023-05-03T10:04:23.255Z,17.75
2023-05-03T10:06:56.404Z,16.33
2023-05-03T10:09:50.274Z,13.77
2023-05-03T10:12:21.800Z,16.80
2023-05-03T10:14:55.403Z,14.90
2023-05-03T10:20:26.263Z,14.27
2023-05-03T10:23:08.955Z,12.50
2023-05-03T10:25:40.860Z,17.77
2023-05-03T10:28:13.695Z,17.92
2023-05-03T10:30:44.130Z,15.00
2023-05-03T10:33:17.507Z,15.55
2023-05-03T10:35:56.892Z,13.38
2023-05-03T10:38:28.832Z,18.90
2023-05-03T10:40:59.840Z,15.52
2023-05-03T10:46:21.248Z,13.30
2023-05-03T10:49:21.837Z,16.55
2023-05-03T10:51:52.787Z,15.68
2023-05-03T10:54:23.062Z,16.27
2023-05-03T10:56:55.312Z,13.30
2023-05-03T10:59:27.269Z,15.13
2023-05-03T11:01:59.136Z,13.73
2023-05-03T11:04:42.441Z,15.38
2023-05-03T11:07:12.745Z,13.80
2023-05-03T11:09:43.038Z,13.57
2023-05-03T11:12:13.330Z,14.85
2023-05-03T11:14:45.800Z,12.07
2023-05-03T11:17:16.339Z,14.77
2023-05-03T11:19:47.478Z,14.97
2023-05-03T11:24:47.792Z,14.95
2023-05-03T11:27:25.993Z,12.17
2023-05-03T11:30:00.808Z,17.85
2023-05-03T11:32:36.524Z,14.25
2023-05-03T11:35:08.614Z,15.05
2023-05-03T11:37:39.050Z,14.73
2023-05-03T11:40:22.086Z,11.47
2023-05-03T11:43:01.278Z,11.25
2023-05-03T11:45:43.272Z,13.32
2023-05-03T11:48:15.533Z,15.65
2023-05-03T11:50:56.837Z,14.25
2023-05-03T11:55:58.371Z,15.05
2023-05-03T11:58:29.556Z,15.23
2023-05-03T12:03:33.570Z,10.85
2023-05-03T12:06:04.801Z,14.73
2023-05-03T12:08:38.694Z,13.15
2023-05-03T12:11:13.645Z,12.18
2023-05-03T12:13:45.001Z,10.85
2023-05-03T12:16:18.565Z,13.52
2023-05-03T12:18:55.780Z,10.60
2023-05-03T12:21:31.893Z,10.48
2023-05-03T12:24:04.906Z,10.90
2023-05-03T12:26:37.877Z,12.13
2023-05-03T12:29:10.062Z,12.38
2023-05-03T12:31:44.097Z,10.45
2023-05-03T12:34:32.694Z,11.18
2023-05-03T12:37:06.505Z,11.40
2023-05-03T12:39:39.644Z,13.02
2023-05-03T12:42:12.402Z,12.45
2023-05-03T12:44:46.922Z,11.88
2023-05-03T12:47:28.013Z,11.27
2023-05-03T12:49:59.972Z,12.07
2023-05-03T13:51:16.744Z,14.23
2023-05-03T13:53:47.288Z,9.15
2023-05-03T13:56:18.438Z,12.82
2023-05-03T13:58:48.828Z,8.65
2023-05-03T14:01:20.290Z,10.67
2023-05-03T14:03:50.845Z,10.40
2023-05-03T14:06:24.188Z,8.80
2023-05-03T14:08:56.984Z,10.43
2023-05-03T14:13:58.669Z,12.30
2023-05-03T14:19:03.338Z,12.45
2023-05-03T14:21:34.216Z,13.23
2023-05-03T14:24:04.616Z,8.02
2023-05-03T14:26:36.441Z,13.57
2023-05-03T14:29:08.115Z,13.82
2023-05-03T14:31:38.854Z,12.82
2023-05-03T14:34:09.284Z,12.73
2023-05-03T14:36:41.927Z,9.77
2023-05-03T14:39:13.035Z,11.18
2023-05-03T14:41:47.825Z,16.67
2023-05-03T14:44:18.055Z,11.60
2023-05-03T14:46:49.273Z,11.75
2023-05-03T14:51:55.041Z,16.63
2023-05-03T14:54:25.653Z,13.00
2023-05-03T14:56:56.092Z,10.43
2023-05-03T14:59:26.343Z,11.87
2023-05-03T15:01:57.074Z,12.02
2023-05-03T15:04:28.114Z,13.70
2023-05-03T15:07:03.276Z,12.93
2023-05-03T15:09:34.206Z,10.20
2023-05-03T15:12:06.276Z,15.80
2023-05-03T15:14:37.811Z,14.20
2023-05-03T15:17:08.283Z,16.05
2023-05-03T15:19:38.674Z,18.43
2023-05-03T15:22:09.110Z,9.18
2023-05-03T15:24:39.208Z,8.83
2023-05-03T15:27:10.145Z,12.30
2023-05-03T15:29:40.377Z,12.30
2023-05-03T15:32:11.172Z,11.73
2023-05-03T15:34:41.950Z,14.00
2023-05-03T15:37:14.671Z,11.83
2023-05-03T15:39:45.047Z,15.02
2023-05-03T15:42:15.438Z,16.50
2023-05-03T15:44:49.206Z,20.83
2023-05-03T15:47:19.632Z,19.10
2023-05-03T15:49:49.813Z,13.88
2023-05-03T15:52:20.160Z,15.40
2023-05-03T15:54:50.553Z,11.53
2023-05-03T15:57:21.031Z,9.30
2023-05-03T15:59:52.016Z,13.17
2023-05-03T16:02:22.298Z,10.15
2023-05-03T16:04:53.035Z,12.63
2023-05-03T16:07:23.490Z,16.00
2023-05-03T16:09:54.213Z,10.32
2023-05-03T16:12:24.488Z,12.10
2023-05-03T16:14:54.904Z,14.13
2023-05-03T16:17:25.603Z,14.43
2023-05-03T16:19:55.923Z,12.77
2023-05-03T16:22:26.235Z,12.27
2023-05-03T16:24:56.672Z,10.18
2023-05-03T16:27:26.774Z,11.20
2023-05-03T16:29:57.321Z,12.60
2023-05-03T16:32:28.882Z,12.43
2023-05-03T16:34:59.409Z,11.80
2023-05-03T16:37:29.828Z,11.07
2023-05-03T16:40:00.301Z,11.27
2023-05-03T16:42:30.534Z,9.70
2023-05-03T16:45:00.851Z,9.07
2023-05-03T16:47:31.149Z,12.38
2023-05-03T16:50:01.456Z,15.30
2023-05-03T16:52:31.729Z,13.18
2023-05-03T16:55:01.799Z,17.15
2023-05-03T16:57:32.150Z,15.65
2023-05-03T17:00:05.687Z,12.40
2023-05-03T17:02:36.396Z,14.52
2023-05-03T17:05:07.792Z,17.67
2023-05-03T17:07:38.840Z,9.50
2023-05-03T17:10:09.733Z,11.60
2023-05-03T17:12:40.402Z,10.95
2023-05-03T17:15:11.289Z,15.27
2023-05-03T17:17:41.912Z,14.98
2023-05-03T17:20:13.317Z,10.13
2023-05-03T17:22:43.793Z,11.05
2023-05-03T17:25:14.154Z,12.03
2023-05-03T17:27:46.238Z,11.83
2023-05-03T17:30:18.773Z,12.75
2023-05-03T17:32:50.053Z,14.82
2023-05-03T17:35:20.952Z,11.65
2023-05-03T17:37:51.351Z,17.00
2023-05-03T17:40:21.804Z,11.57
2023-05-03T17:42:52.189Z,16.43
2023-05-03T17:45:23.601Z,14.15
2023-05-03T17:47:54.063Z,15.55
2023-05-03T17:50:24.562Z,16.93
2023-05-03T17:52:54.903Z,15.43
2023-05-03T17:55:25.207Z,14.93
2023-05-03T17:57:55.585Z,17.90
2023-05-03T18:00:27.879Z,15.50
2023-05-03T18:02:58.773Z,12.38
2023-05-03T18:05:29.713Z,11.77
2023-05-03T18:08:00.062Z,11.73
2023-05-03T18:10:30.453Z,14.43
2023-05-03T18:13:00.852Z,14.18
2023-05-03T18:15:31.415Z,16.73
2023-05-03T18:18:01.671Z,11.77
2023-05-03T18:20:31.928Z,10.90
2023-05-03T18:23:02.231Z,12.02
2023-05-03T18:25:32.771Z,13.85
2023-05-03T18:28:04.654Z,13.67
2023-05-03T18:30:35.098Z,17.23
2023-05-03T18:33:05.338Z,13.50
2023-05-03T18:35:35.897Z,13.32
2023-05-03T18:38:06.257Z,11.53
2023-05-03T18:40:36.420Z,9.48
2023-05-03T18:43:06.762Z,18.40
2023-05-03T18:45:41.413Z,15.10
2023-05-03T18:48:11.924Z,12.90
2023-05-03T18:50:45.184Z,11.13
2023-05-03T18:53:16.432Z,11.65
2023-05-03T18:55:46.907Z,13.23
2023-05-03T18:58:18.044Z,12.03
2023-05-03T19:00:48.410Z,12.70
2023-05-03T19:03:18.775Z,11.10
2023-05-03T19:05:49.389Z,11.30
2023-05-03T19:08:19.676Z,11.87
2023-05-03T19:10:49.930Z,11.93
2023-05-03T19:13:20.452Z,14.43
2023-05-03T19:15:51.057Z,14.63
2023-05-03T19:18:21.597Z,15.70
2023-05-03T19:20:53.514Z,12.97
2023-05-03T19:23:23.876Z,12.38
2023-05-03T19:25:54.831Z,16.43
2023-05-03T19:28:25.338Z,12.48
2023-05-03T19:30:55.894Z,14.60
2023-05-03T19:33:26.420Z,12.10
2023-05-03T19:35:57.426Z,12.37
2023-05-03T19:38:27.864Z,16.17
2023-05-03T19:41:02.109Z,12.38
2023-05-03T19:43:33.757Z,12.43
2023-05-03T19:46:05.396Z,11.65
2023-05-03T19:48:36.682Z,13.82
2023-05-03T19:51:08.627Z,16.20
2023-05-03T19:53:40.136Z,10.40
2023-05-03T19:56:12.027Z,12.23
2023-05-03T19:58:42.534Z,9.52
2023-05-03T20:01:13.257Z,11.60
2023-05-03T20:03:44.869Z,11.88
2023-05-03T20:06:16.241Z,11.45
2023-05-03T20:08:46.598Z,10.40
2023-05-03T20:11:16.866Z,13.07
2023-05-03T20:13:46.893Z,11.85
2023-05-03T20:16:19.318Z,12.43
2023-05-03T20:18:51.367Z,11.32
2023-05-03T20:21:21.962Z,11.93
2023-05-03T20:23:54.329Z,13.10
2023-05-03T20:26:24.806Z,13.23
2023-05-03T20:28:55.179Z,10.80
2023-05-03T20:31:25.605Z,10.20
2023-05-03T20:33:55.913Z,13.40
2023-05-03T20:36:26.376Z,12.43
2023-05-03T20:38:58.372Z,14.25
2023-05-03T20:41:29.210Z,11.82
2023-05-03T20:44:01.660Z,9.82
2023-05-03T20:46:32.153Z,10.15
2023-05-03T20:49:02.464Z,12.63
2023-05-03T20:51:35.934Z,11.90
2023-05-03T20:54:07.356Z,9.70
2023-05-03T20:56:37.945Z,10.32
2023-05-03T20:59:08.388Z,12.57
2023-05-03T21:01:43.028Z,15.27
2023-05-03T21:04:13.629Z,10.45
2023-05-03T21:06:45.444Z,10.77
2023-05-03T21:09:15.641Z,13.88
2023-05-03T21:11:45.866Z,12.70
2023-05-03T21:14:16.809Z,11.52
2023-05-03T21:16:47.803Z,13.23
2023-05-03T21:19:18.278Z,12.00
2023-05-03T21:21:48.728Z,10.00
2023-05-03T21:24:18.984Z,14.10
2023-05-03T21:26:49.348Z,15.43
2023-05-03T21:29:19.734Z,15.73
2023-05-03T21:31:50.045Z,13.95
2023-05-03T21:34:21.824Z,13.85
2023-05-03T21:36:52.896Z,12.68
2023-05-03T21:41:55.702Z,12.18
2023-05-03T21:44:26.475Z,13.27
2023-05-03T21:46:56.949Z,14.40
2023-05-03T21:49:27.423Z,16.23
2023-05-03T21:51:57.745Z,13.25
2023-05-03T21:54:28.980Z,13.95
2023-05-03T21:59:29.068Z,14.75
2023-05-03T22:01:59.685Z,13.80
2023-05-03T22:07:00.460Z,13.25
2023-05-03T22:09:30.529Z,15.30
2023-05-03T22:12:05.928Z,14.25
2023-05-03T22:14:42.834Z,12.00
2023-05-03T22:17:13.156Z,12.43
2023-05-03T22:19:43.502Z,14.43
2023-05-03T22:22:14.002Z,14.82
2023-05-03T22:24:44.153Z,13.68
2023-05-03T22:27:14.530Z,14.25
2023-05-03T22:29:44.917Z,14.00
2023-05-03T22:32:15.455Z,11.07
2023-05-03T22:34:47.430Z,11.27
2023-05-03T22:37:17.842Z,15.55
2023-05-03T22:39:48.179Z,12.57
2023-05-03T22:42:18.872Z,14.55
2023-05-03T22:44:49.668Z,15.38
2023-05-03T22:47:20.141Z,10.55
2023-05-03T22:49:50.529Z,14.02
2023-05-03T22:52:21.100Z,11.67
2023-05-03T22:54:51.487Z,12.50
2023-05-03T22:57:21.726Z,16.33
2023-05-03T22:59:52.053Z,12.95
2023-05-03T23:02:22.481Z,14.88
2023-05-03T23:04:52.909Z,12.20
2023-05-03T23:07:23.400Z,10.27
2023-05-03T23:10:03.593Z,15.47
2023-05-03T23:12:34.747Z,14.17
2023-05-03T23:15:05.177Z,13.07
2023-05-03T23:17:36.360Z,11.27
2023-05-03T23:22:41.777Z,13.23
2023-05-03T23:25:12.354Z,14.43
2023-05-03T23:27:42.635Z,15.40
2023-05-03T23:30:13.802Z,12.10
2023-05-03T23:32:44.487Z,14.80
2023-05-03T23:35:15.722Z,16.42
2023-05-03T23:37:47.112Z,14.25
2023-05-03T23:40:17.746Z,13.40
2023-05-03T23:42:49.171Z,15.33
2023-05-03T23:45:19.657Z,15.68
2023-05-03T23:47:50.232Z,14.70
2023-05-03T23:50:20.684Z,17.00
2023-05-03T23:52:51.029Z,18.00
2023-05-03T23:55:21.546Z,14.00
2023-05-03T23:57:52.102Z,14.40
